sensor_id;sensor_type;location;lat;lon;timestamp;P1;durP1;ratioP1;P2;durP2;ratioP2
25301;SDS011;13243;50.888;4.724;2022-12-20T00:03:20;3.53;;;1.63;;
25301;SDS011;13243;50.888;4.724;2022-12-20T00:08:22;6.93;;;2.03;;
25301;SDS011;13243;50.888;4.724;2022-12-20T00:13:24;4.80;;;2.05;;
25301;SDS011;13243;50.888;4.724;2022-12-20T00:18:26;5.80;;;1.92;;
25301;SDS011;13243;50.888;4.724;2022-12-20T00:23:28;5.75;;;2.17;;
25301;SDS011;13243;50.888;4.724;2022-12-20T00:28:30;3.60;;;1.70;;
25301;SDS011;13243;50.888;4.724;2022-12-20T00:33:34;5.28;;;1.95;;
25301;SDS011;13243;50.888;4.724;2022-12-20T00:38:37;5.07;;;2.22;;
25301;SDS011;13243;50.888;4.724;2022-12-20T00:43:43;6.55;;;2.00;;
25301;SDS011;13243;50.888;4.724;2022-12-20T00:48:46;4.13;;;1.85;;
25301;SDS011;13243;50.888;4.724;2022-12-20T00:53:48;5.10;;;2.03;;
25301;SDS011;13243;50.888;4.724;2022-12-20T00:58:49;4.10;;;1.95;;
25301;SDS011;13243;50.888;4.724;2022-12-20T01:03:52;2.80;;;1.80;;
25301;SDS011;13243;50.888;4.724;2022-12-20T01:08:54;2.97;;;2.25;;
25301;SDS011;13243;50.888;4.724;2022-12-20T01:13:58;4.28;;;2.30;;
25301;SDS011;13243;50.888;4.724;2022-12-20T01:19:02;3.60;;;2.30;;
25301;SDS011;13243;50.888;4.724;2022-12-20T01:24:05;3.28;;;2.22;;
25301;SDS011;13243;50.888;4.724;2022-12-20T01:29:07;4.50;;;2.30;;
25301;SDS011;13243;50.888;4.724;2022-12-20T01:34:11;5.72;;;2.20;;
25301;SDS011;13243;50.888;4.724;2022-12-20T01:39:14;3.97;;;2.05;;
25301;SDS011;13243;50.888;4.724;2022-12-20T01:49:23;8.52;;;2.10;;
25301;SDS011;13243;50.888;4.724;2022-12-20T01:54:33;3.38;;;2.10;;
25301;SDS011;13243;50.888;4.724;2022-12-20T01:59:39;2.85;;;2.00;;
25301;SDS011;13243;50.888;4.724;2022-12-20T02:04:43;5.65;;;2.58;;
25301;SDS011;13243;50.888;4.724;2022-12-20T02:09:45;6.70;;;1.95;;
25301;SDS011;13243;50.888;4.724;2022-12-20T02:31:12;5.88;;;2.08;;
25301;SDS011;13243;50.888;4.724;2022-12-20T02:36:15;5.20;;;1.70;;
25301;SDS011;13243;50.888;4.724;2022-12-20T02:41:19;2.90;;;1.90;;
25301;SDS011;13243;50.888;4.724;2022-12-20T02:46:52;4.65;;;2.38;;
25301;SDS011;13243;50.888;4.724;2022-12-20T02:51:56;3.35;;;1.80;;
25301;SDS011;13243;50.888;4.724;2022-12-20T02:57:17;4.40;;;2.05;;
25301;SDS011;13243;50.888;4.724;2022-12-20T03:02:25;4.75;;;1.98;;
25301;SDS011;13243;50.888;4.724;2022-12-20T03:07:32;5.05;;;1.85;;
25301;SDS011;13243;50.888;4.724;2022-12-20T03:12:34;3.80;;;2.25;;
25301;SDS011;13243;50.888;4.724;2022-12-20T03:17:36;3.00;;;1.88;;
25301;SDS011;13243;50.888;4.724;2022-12-20T03:22:38;2.47;;;1.67;;
25301;SDS011;13243;50.888;4.724;2022-12-20T03:27:40;3.95;;;1.88;;
25301;SDS011;13243;50.888;4.724;2022-12-20T03:32:42;6.63;;;2.55;;
25301;SDS011;13243;50.888;4.724;2022-12-20T03:37:44;5.07;;;1.90;;
25301;SDS011;13243;50.888;4.724;2022-12-20T03:42:46;2.88;;;1.75;;
25301;SDS011;13243;50.888;4.724;2022-12-20T03:47:48;2.50;;;1.90;;
25301;SDS011;13243;50.888;4.724;2022-12-20T03:52:49;2.13;;;1.63;;
25301;SDS011;13243;50.888;4.724;2022-12-20T03:57:51;2.60;;;1.95;;
25301;SDS011;13243;50.888;4.724;2022-12-20T04:02:56;4.18;;;1.75;;
25301;SDS011;13243;50.888;4.724;2022-12-20T04:07:58;3.78;;;1.88;;
25301;SDS011;13243;50.888;4.724;2022-12-20T04:13:00;8.13;;;2.00;;
25301;SDS011;13243;50.888;4.724;2022-12-20T04:18:02;3.20;;;1.98;;
25301;SDS011;13243;50.888;4.724;2022-12-20T04:23:04;4.50;;;2.30;;
25301;SDS011;13243;50.888;4.724;2022-12-20T04:28:06;5.03;;;2.10;;
25301;SDS011;13243;50.888;4.724;2022-12-20T04:33:08;3.47;;;1.70;;
25301;SDS011;13243;50.888;4.724;2022-12-20T04:38:12;5.38;;;1.90;;
25301;SDS011;13243;50.888;4.724;2022-12-20T04:43:15;5.47;;;1.90;;
25301;SDS011;13243;50.888;4.724;2022-12-20T04:48:18;4.07;;;1.58;;
25301;SDS011;13243;50.888;4.724;2022-12-20T04:53:40;9.70;;;2.17;;
25301;SDS011;13243;50.888;4.724;2022-12-20T04:58:49;4.60;;;1.77;;
25301;SDS011;13243;50.888;4.724;2022-12-20T05:03:52;4.07;;;1.50;;
25301;SDS011;13243;50.888;4.724;2022-12-20T05:08:54;4.45;;;1.80;;
25301;SDS011;13243;50.888;4.724;2022-12-20T05:13:56;1.40;;;1.25;;
25301;SDS011;13243;50.888;4.724;2022-12-20T05:18:58;3.70;;;1.55;;
25301;SDS011;13243;50.888;4.724;2022-12-20T05:24:00;4.93;;;1.48;;
25301;SDS011;13243;50.888;4.724;2022-12-20T05:29:21;2.55;;;1.55;;
25301;SDS011;13243;50.888;4.724;2022-12-20T05:34:22;4.25;;;1.65;;
25301;SDS011;13243;50.888;4.724;2022-12-20T05:39:24;3.38;;;1.42;;
25301;SDS011;13243;50.888;4.724;2022-12-20T05:44:26;2.70;;;1.63;;
25301;SDS011;13243;50.888;4.724;2022-12-20T05:49:28;3.35;;;1.50;;
25301;SDS011;13243;50.888;4.724;2022-12-20T05:54:30;1.63;;;1.40;;
25301;SDS011;13243;50.888;4.724;2022-12-20T05:59:32;5.03;;;1.58;;
25301;SDS011;13243;50.888;4.724;2022-12-20T06:04:33;2.97;;;1.42;;
25301;SDS011;13243;50.888;4.724;2022-12-20T06:09:36;6.95;;;1.23;;
25301;SDS011;13243;50.888;4.724;2022-12-20T06:14:38;2.55;;;1.38;;
25301;SDS011;13243;50.888;4.724;2022-12-20T06:19:40;2.50;;;1.33;;
25301;SDS011;13243;50.888;4.724;2022-12-20T06:24:42;4.43;;;1.38;;
25301;SDS011;13243;50.888;4.724;2022-12-20T06:29:49;3.78;;;1.58;;
25301;SDS011;13243;50.888;4.724;2022-12-20T06:34:54;1.98;;;1.38;;
25301;SDS011;13243;50.888;4.724;2022-12-20T06:39:56;2.28;;;1.60;;
25301;SDS011;13243;50.888;4.724;2022-12-20T06:44:58;2.45;;;1.42;;
25301;SDS011;13243;50.888;4.724;2022-12-20T06:50:00;2.67;;;1.95;;
25301;SDS011;13243;50.888;4.724;2022-12-20T06:55:02;2.20;;;1.35;;
25301;SDS011;13243;50.888;4.724;2022-12-20T07:00:04;4.45;;;1.33;;
25301;SDS011;13243;50.888;4.724;2022-12-20T07:05:08;1.98;;;1.10;;
25301;SDS011;13243;50.888;4.724;2022-12-20T07:10:10;3.83;;;1.20;;
25301;SDS011;13243;50.888;4.724;2022-12-20T07:15:15;3.42;;;1.55;;
25301;SDS011;13243;50.888;4.724;2022-12-20T07:20:17;3.70;;;1.30;;
25301;SDS011;13243;50.888;4.724;2022-12-20T07:25:19;4.03;;;1.60;;
25301;SDS011;13243;50.888;4.724;2022-12-20T07:30:21;3.22;;;1.25;;
25301;SDS011;13243;50.888;4.724;2022-12-20T07:35:23;5.15;;;1.30;;
25301;SDS011;13243;50.888;4.724;2022-12-20T07:40:26;3.85;;;1.30;;
25301;SDS011;13243;50.888;4.724;2022-12-20T07:45:28;8.45;;;1.88;;
25301;SDS011;13243;50.888;4.724;2022-12-20T07:50:30;8.38;;;1.70;;
25301;SDS011;13243;50.888;4.724;2022-12-20T07:55:34;4.20;;;1.52;;
25301;SDS011;13243;50.888;4.724;2022-12-20T08:00:38;5.88;;;1.95;;
25301;SDS011;13243;50.888;4.724;2022-12-20T08:05:40;5.80;;;1.60;;
25301;SDS011;13243;50.888;4.724;2022-12-20T08:10:45;5.40;;;1.85;;
25301;SDS011;13243;50.888;4.724;2022-12-20T08:15:47;4.95;;;1.60;;
25301;SDS011;13243;50.888;4.724;2022-12-20T08:20:49;3.40;;;1.73;;
25301;SDS011;13243;50.888;4.724;2022-12-20T08:25:51;4.03;;;1.70;;
25301;SDS011;13243;50.888;4.724;2022-12-20T08:30:58;2.00;;;1.45;;
25301;SDS011;13243;50.888;4.724;2022-12-20T08:36:03;3.88;;;1.70;;
25301;SDS011;13243;50.888;4.724;2022-12-20T08:41:07;2.90;;;1.52;;
25301;SDS011;13243;50.888;4.724;2022-12-20T08:46:13;2.63;;;1.70;;
25301;SDS011;13243;50.888;4.724;2022-12-20T08:51:15;8.50;;;2.17;;
25301;SDS011;13243;50.888;4.724;2022-12-20T08:56:17;3.47;;;1.88;;
25301;SDS011;13243;50.888;4.724;2022-12-20T09:01:20;3.88;;;2.00;;
25301;SDS011;13243;50.888;4.724;2022-12-20T09:06:23;5.85;;;1.60;;
25301;SDS011;13243;50.888;4.724;2022-12-20T09:11:25;2.13;;;1.45;;
25301;SDS011;13243;50.888;4.724;2022-12-20T09:16:28;5.53;;;1.75;;
25301;SDS011;13243;50.888;4.724;2022-12-20T09:21:32;3.83;;;1.60;;
25301;SDS011;13243;50.888;4.724;2022-12-20T09:26:34;4.18;;;1.75;;
25301;SDS011;13243;50.888;4.724;2022-12-20T09:31:36;6.88;;;1.75;;
25301;SDS011;13243;50.888;4.724;2022-12-20T09:36:38;2.83;;;1.77;;
25301;SDS011;13243;50.888;4.724;2022-12-20T09:41:41;4.50;;;1.77;;
25301;SDS011;13243;50.888;4.724;2022-12-20T09:46:46;7.50;;;1.83;;
25301;SDS011;13243;50.888;4.724;2022-12-20T09:57:33;5.78;;;2.35;;
25301;SDS011;13243;50.888;4.724;2022-12-20T10:03:01;2.90;;;1.70;;
25301;SDS011;13243;50.888;4.724;2022-12-20T10:13:40;3.33;;;1.77;;
25301;SDS011;13243;50.888;4.724;2022-12-20T10:24:17;5.53;;;2.00;;
25301;SDS011;13243;50.888;4.724;2022-12-20T10:29:19;4.90;;;1.80;;
25301;SDS011;13243;50.888;4.724;2022-12-20T10:34:21;4.43;;;1.98;;
25301;SDS011;13243;50.888;4.724;2022-12-20T10:39:38;3.58;;;1.80;;
25301;SDS011;13243;50.888;4.724;2022-12-20T10:44:42;6.13;;;2.10;;
25301;SDS011;13243;50.888;4.724;2022-12-20T10:49:44;5.82;;;1.90;;
25301;SDS011;13243;50.888;4.724;2022-12-20T10:54:46;8.73;;;2.70;;
25301;SDS011;13243;50.888;4.724;2022-12-20T11:10:19;5.32;;;2.05;;
25301;SDS011;13243;50.888;4.724;2022-12-20T11:15:35;5.28;;;2.05;;
25301;SDS011;13243;50.888;4.724;2022-12-20T11:25:57;2.88;;;1.88;;
25301;SDS011;13243;50.888;4.724;2022-12-20T11:31:18;4.65;;;2.03;;
25301;SDS011;13243;50.888;4.724;2022-12-20T11:36:25;4.38;;;2.70;;
25301;SDS011;13243;50.888;4.724;2022-12-20T11:57:26;8.77;;;2.75;;
25301;SDS011;13243;50.888;4.724;2022-12-20T12:02:53;9.95;;;2.63;;
25301;SDS011;13243;50.888;4.724;2022-12-20T12:08:03;4.50;;;2.13;;
25301;SDS011;13243;50.888;4.724;2022-12-20T12:13:22;5.20;;;2.50;;
25301;SDS011;13243;50.888;4.724;2022-12-20T12:18:31;5.15;;;3.00;;
25301;SDS011;13243;50.888;4.724;2022-12-20T12:23:41;7.45;;;2.65;;
25301;SDS011;13243;50.888;4.724;2022-12-20T12:28:59;7.63;;;2.90;;
25301;SDS011;13243;50.888;4.724;2022-12-20T12:50:24;5.38;;;2.42;;
25301;SDS011;13243;50.888;4.724;2022-12-20T12:55:40;5.38;;;2.42;;
25301;SDS011;13243;50.888;4.724;2022-12-20T13:00:51;4.80;;;2.45;;
25301;SDS011;13243;50.888;4.724;2022-12-20T13:11:32;7.05;;;2.50;;
25301;SDS011;13243;50.888;4.724;2022-12-20T13:16:47;6.95;;;2.72;;
25301;SDS011;13243;50.888;4.724;2022-12-20T13:37:52;3.60;;;2.45;;
25301;SDS011;13243;50.888;4.724;2022-12-20T13:42:55;5.80;;;3.17;;
25301;SDS011;13243;50.888;4.724;2022-12-20T13:48:00;4.82;;;2.80;;
25301;SDS011;13243;50.888;4.724;2022-12-20T13:53:18;7.28;;;3.40;;
25301;SDS011;13243;50.888;4.724;2022-12-20T13:58:26;4.40;;;2.75;;
25301;SDS011;13243;50.888;4.724;2022-12-20T14:03:31;11.98;;;3.20;;
25301;SDS011;13243;50.888;4.724;2022-12-20T14:08:34;6.22;;;2.78;;
25301;SDS011;13243;50.888;4.724;2022-12-20T14:13:40;6.00;;;3.00;;
25301;SDS011;13243;50.888;4.724;2022-12-20T14:18:48;5.35;;;2.85;;
25301;SDS011;13243;50.888;4.724;2022-12-20T14:24:10;10.68;;;3.38;;
25301;SDS011;13243;50.888;4.724;2022-12-20T14:29:17;4.43;;;3.00;;
25301;SDS011;13243;50.888;4.724;2022-12-20T14:34:25;6.70;;;3.30;;
25301;SDS011;13243;50.888;4.724;2022-12-20T14:39:33;10.23;;;3.25;;
25301;SDS011;13243;50.888;4.724;2022-12-20T14:44:36;4.45;;;3.00;;
25301;SDS011;13243;50.888;4.724;2022-12-20T14:49:38;6.30;;;3.17;;
25301;SDS011;13243;50.888;4.724;2022-12-20T14:54:49;4.88;;;3.10;;
25301;SDS011;13243;50.888;4.724;2022-12-20T15:10:36;8.55;;;3.25;;
25301;SDS011;13243;50.888;4.724;2022-12-20T15:15:38;8.13;;;3.45;;
25301;SDS011;13243;50.888;4.724;2022-12-20T15:20:40;6.25;;;3.40;;
25301;SDS011;13243;50.888;4.724;2022-12-20T15:25:44;10.18;;;3.80;;
25301;SDS011;13243;50.888;4.724;2022-12-20T15:30:46;5.30;;;3.13;;
25301;SDS011;13243;50.888;4.724;2022-12-20T15:35:50;9.43;;;3.85;;
25301;SDS011;13243;50.888;4.724;2022-12-20T15:40:53;7.85;;;4.30;;
25301;SDS011;13243;50.888;4.724;2022-12-20T15:45:56;10.07;;;4.25;;
25301;SDS011;13243;50.888;4.724;2022-12-20T15:50:58;5.95;;;3.83;;
25301;SDS011;13243;50.888;4.724;2022-12-20T15:56:00;8.38;;;4.13;;
25301;SDS011;13243;50.888;4.724;2022-12-20T16:01:02;9.93;;;4.47;;
25301;SDS011;13243;50.888;4.724;2022-12-20T16:06:04;11.38;;;4.93;;
25301;SDS011;13243;50.888;4.724;2022-12-20T16:11:09;7.50;;;4.40;;
25301;SDS011;13243;50.888;4.724;2022-12-20T16:16:29;9.15;;;4.80;;
25301;SDS011;13243;50.888;4.724;2022-12-20T16:21:41;11.82;;;5.25;;
25301;SDS011;13243;50.888;4.724;2022-12-20T16:26:48;7.72;;;4.80;;
25301;SDS011;13243;50.888;4.724;2022-12-20T16:31:51;14.15;;;5.97;;
25301;SDS011;13243;50.888;4.724;2022-12-20T16:36:53;12.63;;;4.60;;
25301;SDS011;13243;50.888;4.724;2022-12-20T16:41:55;14.35;;;5.07;;
25301;SDS011;13243;50.888;4.724;2022-12-20T16:46:57;12.30;;;6.65;;
25301;SDS011;13243;50.888;4.724;2022-12-20T16:51:59;14.30;;;7.03;;
25301;SDS011;13243;50.888;4.724;2022-12-20T16:57:00;21.88;;;8.48;;
25301;SDS011;13243;50.888;4.724;2022-12-20T17:02:02;34.63;;;13.80;;
25301;SDS011;13243;50.888;4.724;2022-12-20T17:07:31;31.65;;;14.43;;
25301;SDS011;13243;50.888;4.724;2022-12-20T17:12:41;41.90;;;16.88;;
25301;SDS011;13243;50.888;4.724;2022-12-20T17:17:44;11.15;;;7.15;;
25301;SDS011;13243;50.888;4.724;2022-12-20T17:22:50;15.38;;;7.10;;
25301;SDS011;13243;50.888;4.724;2022-12-20T17:27:54;14.07;;;6.82;;
25301;SDS011;13243;50.888;4.724;2022-12-20T17:32:56;13.02;;;7.15;;
25301;SDS011;13243;50.888;4.724;2022-12-20T17:37:58;11.93;;;6.60;;
25301;SDS011;13243;50.888;4.724;2022-12-20T17:43:00;14.43;;;7.45;;
25301;SDS011;13243;50.888;4.724;2022-12-20T17:48:03;19.27;;;7.45;;
25301;SDS011;13243;50.888;4.724;2022-12-20T17:53:05;17.13;;;7.93;;
25301;SDS011;13243;50.888;4.724;2022-12-20T17:58:08;14.35;;;7.15;;
25301;SDS011;13243;50.888;4.724;2022-12-20T18:03:11;14.60;;;7.00;;
25301;SDS011;13243;50.888;4.724;2022-12-20T18:08:33;15.15;;;7.45;;
25301;SDS011;13243;50.888;4.724;2022-12-20T18:13:35;11.38;;;6.95;;
25301;SDS011;13243;50.888;4.724;2022-12-20T18:18:37;10.18;;;6.63;;
25301;SDS011;13243;50.888;4.724;2022-12-20T18:23:39;11.70;;;6.95;;
25301;SDS011;13243;50.888;4.724;2022-12-20T18:28:42;12.95;;;7.32;;
25301;SDS011;13243;50.888;4.724;2022-12-20T18:33:46;15.80;;;6.97;;
25301;SDS011;13243;50.888;4.724;2022-12-20T18:38:58;11.85;;;6.38;;
25301;SDS011;13243;50.888;4.724;2022-12-20T18:44:02;9.93;;;6.47;;
25301;SDS011;13243;50.888;4.724;2022-12-20T18:49:05;14.48;;;7.07;;
25301;SDS011;13243;50.888;4.724;2022-12-20T18:54:08;13.45;;;6.22;;
25301;SDS011;13243;50.888;4.724;2022-12-20T18:59:12;9.98;;;6.47;;
25301;SDS011;13243;50.888;4.724;2022-12-20T19:04:14;9.75;;;6.00;;
25301;SDS011;13243;50.888;4.724;2022-12-20T19:09:24;13.13;;;6.40;;
25301;SDS011;13243;50.888;4.724;2022-12-20T19:14:26;9.60;;;6.07;;
25301;SDS011;13243;50.888;4.724;2022-12-20T19:19:28;10.32;;;6.45;;
25301;SDS011;13243;50.888;4.724;2022-12-20T19:24:30;12.02;;;6.20;;
25301;SDS011;13243;50.888;4.724;2022-12-20T19:29:32;9.52;;;6.22;;
25301;SDS011;13243;50.888;4.724;2022-12-20T19:34:33;8.05;;;5.88;;
25301;SDS011;13243;50.888;4.724;2022-12-20T19:39:35;13.63;;;5.95;;
25301;SDS011;13243;50.888;4.724;2022-12-20T19:44:37;10.98;;;6.75;;
25301;SDS011;13243;50.888;4.724;2022-12-20T19:49:39;14.73;;;6.25;;
25301;SDS011;13243;50.888;4.724;2022-12-20T19:54:41;9.23;;;6.00;;
25301;SDS011;13243;50.888;4.724;2022-12-20T19:59:43;7.63;;;4.95;;
25301;SDS011;13243;50.888;4.724;2022-12-20T20:04:53;10.93;;;6.00;;
25301;SDS011;13243;50.888;4.724;2022-12-20T20:09:55;8.13;;;4.90;;
25301;SDS011;13243;50.888;4.724;2022-12-20T20:14:58;8.55;;;5.18;;
25301;SDS011;13243;50.888;4.724;2022-12-20T20:19:59;10.43;;;5.28;;
25301;SDS011;13243;50.888;4.724;2022-12-20T20:25:02;9.43;;;5.97;;
25301;SDS011;13243;50.888;4.724;2022-12-20T20:30:05;9.80;;;5.10;;
25301;SDS011;13243;50.888;4.724;2022-12-20T20:35:08;7.28;;;5.25;;
25301;SDS011;13243;50.888;4.724;2022-12-20T20:40:11;7.72;;;5.15;;
25301;SDS011;13243;50.888;4.724;2022-12-20T20:45:15;8.95;;;4.85;;
25301;SDS011;13243;50.888;4.724;2022-12-20T20:50:17;7.32;;;4.95;;
25301;SDS011;13243;50.888;4.724;2022-12-20T20:55:19;6.95;;;5.00;;
25301;SDS011;13243;50.888;4.724;2022-12-20T21:00:21;8.10;;;5.47;;
25301;SDS011;13243;50.888;4.724;2022-12-20T21:05:22;8.48;;;5.35;;
25301;SDS011;13243;50.888;4.724;2022-12-20T21:10:45;8.02;;;5.65;;
25301;SDS011;13243;50.888;4.724;2022-12-20T21:15:46;10.73;;;5.65;;
25301;SDS011;13243;50.888;4.724;2022-12-20T21:20:48;16.70;;;6.60;;
25301;SDS011;13243;50.888;4.724;2022-12-20T21:25:54;12.77;;;7.45;;
25301;SDS011;13243;50.888;4.724;2022-12-20T21:31:00;9.32;;;6.35;;
25301;SDS011;13243;50.888;4.724;2022-12-20T21:36:04;10.60;;;7.03;;
25301;SDS011;13243;50.888;4.724;2022-12-20T21:41:11;9.88;;;6.53;;
25301;SDS011;13243;50.888;4.724;2022-12-20T21:46:16;9.88;;;6.35;;
25301;SDS011;13243;50.888;4.724;2022-12-20T21:51:19;8.43;;;6.38;;
25301;SDS011;13243;50.888;4.724;2022-12-20T21:56:23;10.70;;;6.78;;
25301;SDS011;13243;50.888;4.724;2022-12-20T22:01:27;11.20;;;7.20;;
25301;SDS011;13243;50.888;4.724;2022-12-20T22:06:34;9.80;;;6.60;;
25301;SDS011;13243;50.888;4.724;2022-12-20T22:11:37;9.48;;;6.95;;
25301;SDS011;13243;50.888;4.724;2022-12-20T22:16:40;10.10;;;6.70;;
25301;SDS011;13243;50.888;4.724;2022-12-20T22:21:42;10.10;;;7.03;;
25301;SDS011;13243;50.888;4.724;2022-12-20T22:26:45;13.00;;;6.97;;
25301;SDS011;13243;50.888;4.724;2022-12-20T22:31:47;11.98;;;7.22;;
25301;SDS011;13243;50.888;4.724;2022-12-20T22:36:49;12.55;;;7.75;;
25301;SDS011;13243;50.888;4.724;2022-12-20T22:41:54;19.05;;;9.30;;
25301;SDS011;13243;50.888;4.724;2022-12-20T22:46:56;16.08;;;9.57;;
25301;SDS011;13243;50.888;4.724;2022-12-20T22:51:59;17.83;;;10.18;;
25301;SDS011;13243;50.888;4.724;2022-12-20T22:57:07;21.75;;;11.07;;
25301;SDS011;13243;50.888;4.724;2022-12-20T23:02:12;22.15;;;12.13;;
25301;SDS011;13243;50.888;4.724;2022-12-20T23:07:15;24.77;;;12.30;;
25301;SDS011;13243;50.888;4.724;2022-12-20T23:12:17;25.02;;;13.13;;
25301;SDS011;13243;50.888;4.724;2022-12-20T23:17:54;27.45;;;13.45;;
25301;SDS011;13243;50.888;4.724;2022-12-20T23:22:57;33.63;;;15.82;;
25301;SDS011;13243;50.888;4.724;2022-12-20T23:27:59;30.70;;;14.63;;
25301;SDS011;13243;50.888;4.724;2022-12-20T23:33:01;33.58;;;16.25;;
25301;SDS011;13243;50.888;4.724;2022-12-20T23:38:03;35.38;;;15.35;;
25301;SDS011;13243;50.888;4.724;2022-12-20T23:43:05;42.83;;;17.77;;
25301;SDS011;13243;50.888;4.724;2022-12-20T23:48:06;40.78;;;19.23;;
25301;SDS011;13243;50.888;4.724;2022-12-20T23:53:08;41.58;;;18.60;;
25301;SDS011;13243;50.888;4.724;2022-12-20T23:58:10;45.53;;;19.48;;
